Time;durP1;ratioP1;P1;durP2;ratioP2;P2;SDS_P1;SDS_P2;PMS_P1;PMS_P2;Temp;Humidity;BMP_temperature;BMP_pressure;BME280_temperature;BME280_humidity;BME280_pressure;Samples;Min_cycle;Max_cycle;Signal;HPM_P1;HPM_P2
2023/05/23 00:00:58;;;;;;;7.35;5.53;;;23.00;99.90;;;;;;5053199;28;20097;-51
2023/05/23 00:03:30;;;;;;;13.10;7.38;;;23.00;99.90;;;;;;5052576;28;20022;-50
2023/05/23 00:05:57;;;;;;;11.18;6.65;;;23.00;99.90;;;;;;5052581;28;20020;-50
2023/05/23 00:08:23;;;;;;;11.70;6.55;;;23.00;99.90;;;;;;5052391;28;20378;-51
2023/05/23 00:10:49;;;;;;;8.75;6.40;;;23.00;99.90;;;;;;5052642;28;20032;-51
2023/05/23 00:13:16;;;;;;;10.85;6.38;;;23.00;99.90;;;;;;5052410;28;20051;-50
2023/05/23 00:15:42;;;;;;;12.20;6.38;;;22.90;99.90;;;;;;5052162;28;20028;-51
2023/05/23 00:18:12;;;;;;;8.65;6.60;;;22.90;99.90;;;;;;5052565;28;20075;-51
2023/05/23 00:20:40;;;;;;;11.85;6.88;;;22.90;99.90;;;;;;5039348;28;20025;-51
2023/05/23 00:23:12;;;;;;;11.05;6.93;;;22.90;99.90;;;;;;5052458;28;20440;-51
2023/05/23 00:25:39;;;;;;;10.95;6.60;;;22.90;99.90;;;;;;5053772;28;20013;-51
2023/05/23 00:28:05;;;;;;;11.55;7.82;;;22.90;99.90;;;;;;5056104;28;20032;-51
2023/05/23 00:30:32;;;;;;;12.68;8.07;;;22.90;99.90;;;;;;5055241;28;20029;-51
2023/05/23 00:32:59;;;;;;;12.05;7.65;;;22.90;99.90;;;;;;5055328;28;20032;-51
2023/05/23 00:35:25;;;;;;;13.30;7.95;;;22.90;99.90;;;;;;5056004;28;20037;-51
2023/05/23 00:37:51;;;;;;;9.80;7.50;;;22.90;99.90;;;;;;5055356;28;20017;-51
2023/05/23 00:40:18;;;;;;;13.07;8.07;;;22.90;99.90;;;;;;5056337;28;20025;-50
2023/05/23 00:42:44;;;;;;;13.15;8.68;;;22.90;99.90;;;;;;5056419;28;20105;-51
2023/05/23 00:45:13;;;;;;;12.43;7.97;;;22.90;99.90;;;;;;5056306;28;20519;-50
2023/05/23 00:47:40;;;;;;;11.05;8.68;;;22.90;99.90;;;;;;5056183;28;20086;-50
2023/05/23 00:50:11;;;;;;;13.25;8.73;;;22.90;99.90;;;;;;5038139;28;20024;-50
2023/05/23 00:52:41;;;;;;;12.73;8.38;;;22.90;99.90;;;;;;5056078;28;20029;-50
2023/05/23 00:55:08;;;;;;;12.65;8.88;;;22.80;99.90;;;;;;5056068;28;20033;-51
2023/05/23 00:57:39;;;;;;;14.00;8.82;;;22.80;99.90;;;;;;5056196;28;20385;-51
2023/05/23 01:02:45;;;;;;;13.50;8.88;;;22.80;99.90;;;;;;5034504;28;20049;-55
2023/05/23 01:05:13;;;;;;;10.07;8.02;;;22.80;99.90;;;;;;5035967;28;20104;-53
2023/05/23 01:07:43;;;;;;;14.88;8.68;;;22.80;99.90;;;;;;5035864;28;20026;-54
2023/05/23 01:10:10;;;;;;;12.70;8.38;;;22.80;99.90;;;;;;5035805;28;20017;-54
2023/05/23 01:12:57;;;;;;;13.10;8.82;;;22.80;99.90;;;;;;5035757;28;20359;-54
2023/05/23 01:15:50;;;;;;;12.85;8.60;;;22.80;99.90;;;;;;5035886;28;20113;-54
2023/05/23 01:18:22;;;;;;;10.70;8.68;;;22.80;99.90;;;;;;5035688;28;20076;-54
2023/05/23 01:20:52;;;;;;;13.93;8.82;;;22.80;99.90;;;;;;5035596;28;20064;-53
2023/05/23 01:23:39;;;;;;;10.55;8.02;;;22.80;99.90;;;;;;5035598;28;20029;-53
2023/05/23 01:26:40;;;;;;;9.88;8.43;;;22.80;99.90;;;;;;5035440;28;20025;-54
2023/05/23 01:29:35;;;;;;;13.15;9.00;;;22.80;99.90;;;;;;5035361;28;20024;-54
2023/05/23 01:32:05;;;;;;;11.50;8.25;;;22.80;99.90;;;;;;5035391;28;20048;-56
2023/05/23 01:34:34;;;;;;;12.57;8.88;;;22.80;99.90;;;;;;5017611;28;20095;-54
2023/05/23 01:37:00;;;;;;;11.45;7.93;;;22.70;99.90;;;;;;5034655;28;20021;-54
2023/05/23 01:39:25;;;;;;;11.68;8.40;;;22.70;99.90;;;;;;5035405;28;20084;-54
2023/05/23 01:41:52;;;;;;;15.18;8.55;;;22.70;99.90;;;;;;5035274;28;20109;-54
2023/05/23 01:44:20;;;;;;;11.63;7.90;;;22.70;99.90;;;;;;5035121;28;20017;-54
2023/05/23 01:46:46;;;;;;;13.05;9.40;;;22.70;99.90;;;;;;5035176;28;20034;-53
2023/05/23 01:49:15;;;;;;;10.63;7.32;;;22.70;99.90;;;;;;5035483;28;20021;-54
2023/05/23 01:51:41;;;;;;;13.25;8.07;;;22.70;99.90;;;;;;5035149;28;20014;-54
2023/05/23 01:54:07;;;;;;;13.25;9.02;;;22.70;99.90;;;;;;5035033;28;20041;-55
2023/05/23 01:56:33;;;;;;;14.40;8.60;;;22.70;99.90;;;;;;5034962;28;20486;-56
2023/05/23 01:59:00;;;;;;;12.45;9.32;;;22.60;99.90;;;;;;5035024;28;20021;-55
2023/05/23 02:01:26;;;;;;;10.65;8.43;;;22.70;99.90;;;;;;5035529;28;20498;-56
2023/05/23 02:03:52;;;;;;;11.65;8.20;;;22.70;99.90;;;;;;5034811;28;20028;-55
2023/05/23 02:06:18;;;;;;;12.88;8.88;;;22.70;99.90;;;;;;5034826;28;20028;-55
2023/05/23 02:08:43;;;;;;;12.50;9.73;;;22.70;99.90;;;;;;5034667;28;20045;-56
2023/05/23 02:11:09;;;;;;;10.65;8.40;;;22.70;99.90;;;;;;5034729;28;20025;-56
2023/05/23 02:13:35;;;;;;;12.02;8.65;;;22.60;99.90;;;;;;5034577;28;20092;-56
2023/05/23 02:16:01;;;;;;;11.88;8.45;;;22.70;99.90;;;;;;5034612;28;20135;-56
2023/05/23 02:18:28;;;;;;;11.60;8.18;;;22.60;99.90;;;;;;5034641;28;20045;-56
2023/05/23 02:20:55;;;;;;;14.18;8.40;;;22.60;99.90;;;;;;5034691;28;20025;-57
2023/05/23 02:23:21;;;;;;;10.40;8.02;;;22.60;99.90;;;;;;5034536;28;20053;-56
2023/05/23 02:25:47;;;;;;;11.40;7.85;;;22.60;99.90;;;;;;5034369;28;20025;-56
2023/05/23 02:28:13;;;;;;;11.70;8.80;;;22.60;99.90;;;;;;5034339;28;20040;-56
2023/05/23 02:30:39;;;;;;;11.40;8.35;;;22.60;99.90;;;;;;5016717;28;20026;-57
2023/05/23 02:33:06;;;;;;;12.27;8.85;;;22.60;99.90;;;;;;5034662;28;20384;-56
2023/05/23 02:35:33;;;;;;;14.52;8.38;;;22.60;99.90;;;;;;5032708;28;20436;-56
2023/05/23 02:37:59;;;;;;;12.85;9.05;;;22.60;99.90;;;;;;5031568;28;20124;-55
2023/05/23 02:40:25;;;;;;;9.57;7.80;;;22.50;99.90;;;;;;5032896;28;20086;-56
2023/05/23 02:42:51;;;;;;;10.95;8.55;;;22.60;99.90;;;;;;5034068;28;20021;-54
2023/05/23 02:45:17;;;;;;;11.80;8.57;;;22.50;99.90;;;;;;5032854;28;20014;-54
2023/05/23 02:47:43;;;;;;;13.02;8.38;;;22.50;99.90;;;;;;5033218;28;20378;-54
2023/05/23 02:50:09;;;;;;;11.02;8.25;;;22.50;99.90;;;;;;5016238;28;20030;-55
2023/05/23 02:52:35;;;;;;;11.55;8.00;;;22.50;99.90;;;;;;5034066;28;20037;-55
2023/05/23 02:55:01;;;;;;;12.27;8.27;;;22.50;99.90;;;;;;5032909;28;20037;-53
2023/05/23 02:57:26;;;;;;;10.98;8.68;;;22.50;99.90;;;;;;5033950;28;20021;-55
2023/05/23 02:59:52;;;;;;;9.30;7.65;;;22.50;99.90;;;;;;5032015;28;20392;-54
2023/05/23 03:02:18;;;;;;;12.18;8.35;;;22.50;99.90;;;;;;5028357;22;20054;-51
2023/05/23 03:04:44;;;;;;;10.65;7.97;;;22.50;99.90;;;;;;5031764;28;20022;-52
2023/05/23 03:07:11;;;;;;;11.30;8.05;;;22.50;99.90;;;;;;5033020;28;20108;-52
2023/05/23 03:09:37;;;;;;;11.98;8.05;;;22.50;99.90;;;;;;5032105;28;20100;-51
2023/05/23 03:12:03;;;;;;;11.65;7.90;;;22.50;99.90;;;;;;5032965;28;20120;-53
2023/05/23 03:14:29;;;;;;;11.00;8.10;;;22.50;99.90;;;;;;5031889;28;20428;-53
2023/05/23 03:16:55;;;;;;;10.50;8.20;;;22.50;99.90;;;;;;5032890;28;20044;-52
2023/05/23 03:19:20;;;;;;;10.45;7.50;;;22.50;99.90;;;;;;5031936;28;20017;-53
2023/05/23 03:21:46;;;;;;;10.68;7.88;;;22.50;99.90;;;;;;5032812;28;20553;-53
2023/05/23 03:24:12;;;;;;;11.27;7.20;;;22.50;99.90;;;;;;5031776;28;20112;-53
2023/05/23 03:26:38;;;;;;;10.65;7.95;;;22.50;99.90;;;;;;5031202;28;20041;-53
2023/05/23 03:29:03;;;;;;;12.10;7.72;;;22.40;99.90;;;;;;5030508;28;20076;-53
2023/05/23 03:31:29;;;;;;;11.77;8.40;;;22.50;99.90;;;;;;5014153;28;20060;-53
2023/05/23 03:33:55;;;;;;;9.60;7.63;;;22.40;99.90;;;;;;5033063;28;20446;-53
2023/05/23 03:36:24;;;;;;;10.07;7.53;;;22.40;99.90;;;;;;5033402;28;20381;-53
2023/05/23 03:38:51;;;;;;;10.70;7.57;;;22.40;99.90;;;;;;5033129;28;20021;-51
2023/05/23 03:41:17;;;;;;;9.45;7.55;;;22.40;99.90;;;;;;5033142;28;20025;-52
2023/05/23 03:43:43;;;;;;;10.82;7.85;;;22.40;99.90;;;;;;5033163;28;20025;-51
2023/05/23 03:46:09;;;;;;;9.18;7.65;;;22.40;99.90;;;;;;5015370;28;20053;-51
2023/05/23 03:48:35;;;;;;;10.00;7.53;;;22.40;99.90;;;;;;5033261;28;20021;-51
2023/05/23 03:51:01;;;;;;;9.80;7.80;;;22.40;99.90;;;;;;5033129;28;20057;-51
2023/05/23 03:53:27;;;;;;;9.82;7.50;;;22.40;99.90;;;;;;5032151;28;20025;-52
2023/05/23 03:55:53;;;;;;;7.97;6.68;;;22.40;99.90;;;;;;5033176;28;20513;-52
2023/05/23 03:58:19;;;;;;;10.23;7.88;;;22.40;99.90;;;;;;5033117;28;20018;-52
2023/05/23 04:00:46;;;;;;;9.55;7.43;;;22.40;99.90;;;;;;5034956;28;20053;-52
2023/05/23 04:03:14;;;;;;;10.32;7.50;;;22.40;99.90;;;;;;5037032;28;20469;-51
2023/05/23 04:05:40;;;;;;;8.63;7.30;;;22.40;99.90;;;;;;5037008;28;20022;-52
2023/05/23 04:08:07;;;;;;;10.88;7.40;;;22.40;99.90;;;;;;5037019;28;20027;-52
2023/05/23 04:10:32;;;;;;;9.90;7.47;;;22.40;99.90;;;;;;5037221;28;20025;-52
2023/05/23 04:12:58;;;;;;;10.15;7.63;;;22.30;99.90;;;;;;5036931;28;20025;-51
2023/05/23 04:15:24;;;;;;;8.23;6.47;;;22.30;99.90;;;;;;5036715;28;20397;-52
2023/05/23 04:17:50;;;;;;;9.15;6.82;;;22.30;99.90;;;;;;5019276;28;20363;-51
2023/05/23 04:20:16;;;;;;;9.80;7.30;;;22.40;99.90;;;;;;5019105;28;20117;-52
2023/05/23 04:22:42;;;;;;;8.75;6.55;;;22.40;99.90;;;;;;5018918;28;20446;-51
2023/05/23 04:25:08;;;;;;;8.63;6.53;;;22.40;99.90;;;;;;5036673;28;20025;-51
2023/05/23 04:27:34;;;;;;;12.15;6.63;;;22.40;99.90;;;;;;5036646;28;20059;-51
2023/05/23 04:30:00;;;;;;;10.27;6.32;;;22.30;99.90;;;;;;5036705;28;20025;-52
2023/05/23 04:32:26;;;;;;;10.23;7.57;;;22.30;99.90;;;;;;5036789;28;20416;-51
2023/05/23 04:34:52;;;;;;;10.15;6.78;;;22.30;99.90;;;;;;5036527;28;20098;-51
2023/05/23 04:37:24;;;;;;;11.93;7.15;;;22.30;99.90;;;;;;5036431;28;20086;-51
2023/05/23 04:39:51;;;;;;;9.52;7.18;;;22.30;99.90;;;;;;5036495;28;20026;-52
2023/05/23 04:42:17;;;;;;;8.93;6.75;;;22.30;99.90;;;;;;5036365;28;20025;-51
2023/05/23 04:44:43;;;;;;;9.68;6.68;;;22.30;99.90;;;;;;5036336;28;20070;-51
2023/05/23 04:47:08;;;;;;;8.52;7.15;;;22.30;99.90;;;;;;5036317;28;20076;-51
2023/05/23 04:49:36;;;;;;;11.18;6.68;;;22.30;99.90;;;;;;5036079;28;20026;-51
2023/05/23 04:52:02;;;;;;;9.13;6.50;;;22.30;99.90;;;;;;5036086;28;20477;-52
2023/05/23 04:54:27;;;;;;;9.38;6.75;;;22.30;99.90;;;;;;5018319;28;20037;-51
2023/05/23 04:56:53;;;;;;;7.85;5.75;;;22.30;99.90;;;;;;5036183;28;20025;-52
2023/05/23 04:59:19;;;;;;;10.82;6.47;;;22.30;99.90;;;;;;5036076;28;20030;-52
2023/05/23 05:01:45;;;;;;;8.00;6.40;;;22.30;99.90;;;;;;5034238;28;20404;-51
2023/05/23 05:04:11;;;;;;;8.20;5.88;;;22.30;99.90;;;;;;5017479;28;20429;-51
2023/05/23 05:06:37;;;;;;;7.78;5.90;;;22.30;99.90;;;;;;5035782;28;20454;-51
2023/05/23 05:09:02;;;;;;;8.63;6.10;;;22.30;99.90;;;;;;5035922;28;20053;-51
2023/05/23 05:11:28;;;;;;;9.15;6.25;;;22.30;99.90;;;;;;5035839;28;20056;-51
2023/05/23 05:13:54;;;;;;;8.05;5.85;;;22.30;99.90;;;;;;5035661;28;20517;-51
2023/05/23 05:16:20;;;;;;;8.55;6.28;;;22.30;99.90;;;;;;5035790;28;20025;-51
2023/05/23 05:18:46;;;;;;;8.57;6.45;;;22.30;99.90;;;;;;5035672;28;20390;-51
2023/05/23 05:21:12;;;;;;;10.93;5.68;;;22.30;99.90;;;;;;5035550;28;20059;-51
2023/05/23 05:23:37;;;;;;;9.98;5.80;;;22.30;99.90;;;;;;5034013;28;20029;-51
2023/05/23 05:26:04;;;;;;;8.27;6.05;;;22.30;99.90;;;;;;5034597;28;20037;-50
2023/05/23 05:28:30;;;;;;;10.80;6.35;;;22.30;99.90;;;;;;5035485;28;20021;-51
2023/05/23 05:30:55;;;;;;;9.27;5.60;;;22.30;99.90;;;;;;5035520;28;20441;-51
2023/05/23 05:33:24;;;;;;;7.03;6.30;;;22.20;99.90;;;;;;5035336;28;20485;-51
2023/05/23 05:35:50;;;;;;;9.68;6.47;;;22.30;99.90;;;;;;5035170;28;20492;-52
2023/05/23 05:38:16;;;;;;;8.43;5.63;;;22.20;99.90;;;;;;5035202;28;20028;-51
2023/05/23 05:40:42;;;;;;;6.93;5.45;;;22.20;99.90;;;;;;5035187;28;20390;-51
2023/05/23 05:43:09;;;;;;;8.02;5.95;;;22.20;99.90;;;;;;5035438;28;20111;-51
2023/05/23 05:45:35;;;;;;;9.43;6.43;;;22.30;99.90;;;;;;5035401;28;20022;-51
2023/05/23 05:48:01;;;;;;;8.32;5.63;;;22.20;99.90;;;;;;5035186;28;20125;-51
2023/05/23 05:50:26;;;;;;;11.20;6.20;;;22.20;99.90;;;;;;5017351;28;20052;-51
2023/05/23 05:52:52;;;;;;;8.30;5.82;;;22.20;99.90;;;;;;5034904;28;20013;-51
2023/05/23 05:55:18;;;;;;;8.82;5.65;;;22.20;99.90;;;;;;5034701;28;20041;-51
2023/05/23 05:57:44;;;;;;;8.10;5.68;;;22.20;99.90;;;;;;5034716;28;20064;-51
2023/05/23 06:00:13;;;;;;;8.55;5.82;;;22.20;99.90;;;;;;5034797;28;20026;-51
2023/05/23 06:02:41;;;;;;;7.10;5.55;;;22.20;99.90;;;;;;5034618;28;20141;-51
2023/05/23 06:05:15;;;;;;;;;;;22.20;99.90;;;;;;5017550;28;20018;-51
2023/05/23 06:07:41;;;;;;;8.35;6.13;;;22.30;99.90;;;;;;5034723;28;19984;-51
2023/05/23 06:10:08;;;;;;;8.18;6.00;;;22.30;99.90;;;;;;5034555;28;20411;-51
2023/05/23 06:12:34;;;;;;;7.43;5.68;;;22.20;99.90;;;;;;5034640;28;20029;-51
2023/05/23 06:15:01;;;;;;;9.38;6.18;;;22.20;99.90;;;;;;5034247;28;20034;-51
2023/05/23 06:17:27;;;;;;;9.27;6.10;;;22.20;99.90;;;;;;5034325;28;20018;-51
2023/05/23 06:19:52;;;;;;;10.50;6.05;;;22.20;99.90;;;;;;5034822;28;20104;-51
2023/05/23 06:22:18;;;;;;;8.25;6.30;;;22.20;99.90;;;;;;5034389;28;20096;-52
2023/05/23 06:24:45;;;;;;;7.32;6.07;;;22.20;99.90;;;;;;5016261;28;20036;-51
2023/05/23 06:27:11;;;;;;;8.35;6.05;;;22.20;99.90;;;;;;5034420;28;20025;-51
2023/05/23 06:29:37;;;;;;;8.63;6.18;;;22.20;99.90;;;;;;5030931;28;20044;-52
2023/05/23 06:32:03;;;;;;;9.45;6.00;;;22.20;99.90;;;;;;5033317;28;20026;-52
2023/05/23 06:34:29;;;;;;;10.80;6.70;;;22.20;99.90;;;;;;5031621;28;20029;-52
2023/05/23 06:36:55;;;;;;;8.35;6.38;;;22.20;99.90;;;;;;5033747;28;20496;-51
2023/05/23 06:39:20;;;;;;;10.13;5.85;;;22.20;99.90;;;;;;5034153;28;20021;-52
2023/05/23 06:41:47;;;;;;;7.53;5.72;;;22.20;99.90;;;;;;5034153;28;20036;-51
2023/05/23 06:44:13;;;;;;;7.47;5.82;;;22.30;99.90;;;;;;5033093;28;20362;-51
2023/05/23 06:46:39;;;;;;;7.65;6.05;;;22.30;99.90;;;;;;5033869;28;20026;-52
2023/05/23 06:49:04;;;;;;;8.45;6.18;;;22.30;99.90;;;;;;5033944;28;20079;-52
2023/05/23 06:51:30;;;;;;;7.80;5.53;;;22.30;99.90;;;;;;5032449;28;20030;-52
2023/05/23 06:53:56;;;;;;;9.27;6.18;;;22.30;99.90;;;;;;5033912;28;20025;-51
2023/05/23 06:56:22;;;;;;;8.55;5.60;;;22.30;99.90;;;;;;5033936;28;20026;-51
2023/05/23 06:58:48;;;;;;;8.43;5.15;;;22.30;99.90;;;;;;5034183;28;20193;-51
2023/05/23 07:01:14;;;;;;;8.18;5.72;;;22.30;99.90;;;;;;5033858;28;20045;-51
2023/05/23 07:03:42;;;;;;;6.28;5.03;;;22.30;99.90;;;;;;5033809;28;20029;-51
2023/05/23 07:06:07;;;;;;;;;;;22.30;99.90;;;;;;5034283;28;20052;-51
2023/05/23 07:08:33;;;;;;;7.75;5.05;;;22.30;99.90;;;;;;5033671;28;20381;-51
2023/05/23 07:11:00;;;;;;;8.00;5.47;;;22.30;99.90;;;;;;5016457;28;20428;-51
2023/05/23 07:13:26;;;;;;;8.47;6.03;;;22.30;99.90;;;;;;5033207;28;20025;-51
2023/05/23 07:15:51;;;;;;;10.13;6.53;;;22.30;99.90;;;;;;5033292;28;20030;-51
2023/05/23 07:18:17;;;;;;;6.47;5.00;;;22.30;99.90;;;;;;5033630;28;20454;-52
2023/05/23 07:20:43;;;;;;;8.85;5.38;;;22.30;99.90;;;;;;5033215;28;20037;-51
2023/05/23 07:23:09;;;;;;;7.97;5.65;;;22.30;99.90;;;;;;5033178;28;20425;-51
2023/05/23 07:25:35;;;;;;;9.20;5.63;;;22.30;99.90;;;;;;5032728;28;20053;-51
2023/05/23 07:28:00;;;;;;;7.53;5.28;;;22.30;99.90;;;;;;5032783;28;20018;-52
2023/05/23 07:30:26;;;;;;;7.47;5.15;;;22.30;99.90;;;;;;5032538;28;20080;-51
2023/05/23 07:32:52;;;;;;;6.13;4.63;;;22.30;99.90;;;;;;5031626;28;20052;-52
2023/05/23 07:35:22;;;;;;;7.95;4.82;;;22.30;99.90;;;;;;5032268;28;20040;-52
2023/05/23 07:37:48;;;;;;;6.85;4.78;;;22.30;99.90;;;;;;5016324;28;20354;-52
2023/05/23 07:40:14;;;;;;;8.57;4.57;;;22.30;99.90;;;;;;5032413;28;20029;-52
2023/05/23 07:42:40;;;;;;;6.15;3.92;;;22.30;99.90;;;;;;5032655;28;20080;-52
2023/05/23 07:45:06;;;;;;;5.00;3.88;;;22.40;99.90;;;;;;5032603;28;20036;-51
2023/05/23 07:47:32;;;;;;;5.35;4.35;;;22.30;99.90;;;;;;5032625;28;20468;-52
2023/05/23 07:50:01;;;;;;;5.72;3.83;;;22.40;99.90;;;;;;5032056;28;20071;-50
2023/05/23 07:52:29;;;;;;;6.10;3.28;;;22.40;99.90;;;;;;5032476;28;20021;-50
2023/05/23 07:54:55;;;;;;;8.00;4.20;;;22.40;99.90;;;;;;5014688;28;20026;-49
2023/05/23 07:57:21;;;;;;;6.97;4.85;;;22.40;99.90;;;;;;5032419;28;20025;-49
2023/05/23 07:59:47;;;;;;;5.50;3.33;;;22.40;99.90;;;;;;5032518;28;20106;-52
2023/05/23 08:02:12;;;;;;;11.85;3.45;;;22.40;99.90;;;;;;5032664;28;20042;-50
2023/05/23 08:04:39;;;;;;;14.25;3.50;;;22.40;99.90;;;;;;5032986;28;20022;-51
2023/05/23 08:07:04;;;;;;;7.35;3.70;;;22.40;99.90;;;;;;5033144;28;20018;-50
2023/05/23 08:09:30;;;;;;;10.20;3.50;;;22.40;99.90;;;;;;5026710;28;20101;-53
2023/05/23 08:11:56;;;;;;;6.35;2.58;;;22.50;99.90;;;;;;5032574;28;20087;-53
2023/05/23 08:14:22;;;;;;;3.55;2.42;;;22.50;99.90;;;;;;5031029;28;20547;-53
2023/05/23 08:16:47;;;;;;;4.90;3.47;;;22.50;99.90;;;;;;5030254;28;20469;-52
2023/05/23 08:19:13;;;;;;;4.43;3.17;;;22.50;99.90;;;;;;5031003;28;20032;-52
2023/05/23 08:21:40;;;;;;;5.32;2.65;;;22.50;99.90;;;;;;5032087;28;20045;-53
2023/05/23 08:24:05;;;;;;;5.32;2.80;;;22.50;99.90;;;;;;5032044;28;20033;-52
2023/05/23 08:26:33;;;;;;;11.25;3.10;;;22.50;99.90;;;;;;5031460;28;20088;-52
2023/05/23 08:29:02;;;;;;;5.22;2.58;;;22.50;99.90;;;;;;5031821;28;20018;-53
2023/05/23 08:31:29;;;;;;;4.05;2.28;;;22.50;99.90;;;;;;5031916;28;20029;-52
2023/05/23 08:33:55;;;;;;;9.52;2.47;;;22.50;99.90;;;;;;5032049;28;20087;-52
2023/05/23 08:36:21;;;;;;;6.93;2.90;;;22.50;99.90;;;;;;5031411;28;20029;-52
2023/05/23 08:38:49;;;;;;;8.98;3.33;;;22.50;99.90;;;;;;5031804;28;20032;-52
2023/05/23 08:41:18;;;;;;;4.97;2.67;;;22.50;99.90;;;;;;5031948;28;20028;-52
2023/05/23 08:43:44;;;;;;;6.40;2.60;;;22.50;99.90;;;;;;5031705;28;20036;-52
2023/05/23 08:46:11;;;;;;;5.05;2.80;;;22.50;99.90;;;;;;5048785;28;20025;-52
2023/05/23 08:48:38;;;;;;;5.43;2.20;;;22.50;99.90;;;;;;5052105;28;20362;-53
2023/05/23 08:51:05;;;;;;;6.68;2.88;;;22.60;99.90;;;;;;5052584;28;20467;-53
2023/05/23 08:53:32;;;;;;;5.05;2.58;;;22.60;99.90;;;;;;5051760;28;20033;-53
2023/05/23 08:56:01;;;;;;;5.05;3.22;;;22.60;99.90;;;;;;5052179;28;20029;-53
2023/05/23 08:58:30;;;;;;;6.22;3.17;;;22.60;99.90;;;;;;5052241;28;20099;-53
2023/05/23 09:00:58;;;;;;;7.40;3.35;;;22.60;99.90;;;;;;5040549;28;20157;-53
2023/05/23 09:03:26;;;;;;;11.35;2.88;;;22.70;99.90;;;;;;5033187;28;20031;-53
2023/05/23 09:05:53;;;;;;;6.22;2.70;;;22.60;99.90;;;;;;5033562;28;20048;-53
2023/05/23 09:08:20;;;;;;;8.07;2.83;;;22.70;99.90;;;;;;5033097;28;20104;-53
2023/05/23 09:10:49;;;;;;;7.43;3.53;;;22.70;99.90;;;;;;5029697;28;20517;-53
2023/05/23 09:13:16;;;;;;;7.07;3.10;;;22.70;99.90;;;;;;5033270;28;20026;-54
2023/05/23 09:16:03;;;;;;;5.47;3.08;;;22.80;99.90;;;;;;5035575;28;20048;-53
2023/05/23 09:18:40;;;;;;;13.07;3.33;;;22.70;99.90;;;;;;5043432;28;20052;-52
2023/05/23 09:21:07;;;;;;;7.35;2.92;;;22.70;99.90;;;;;;5015588;28;20592;-52
2023/05/23 09:23:34;;;;;;;9.45;4.07;;;22.80;99.90;;;;;;5045880;28;20324;-54
2023/05/23 09:26:02;;;;;;;8.25;3.75;;;22.80;99.90;;;;;;5042784;28;20022;-53
2023/05/23 09:28:28;;;;;;;6.30;2.70;;;22.90;99.90;;;;;;5034239;28;20032;-54
2023/05/23 09:30:58;;;;;;;4.68;2.78;;;22.90;99.90;;;;;;5015567;28;20034;-53
2023/05/23 09:33:47;;;;;;;5.20;2.30;;;22.80;99.90;;;;;;5018802;28;20018;-54
2023/05/23 09:36:13;;;;;;;11.52;2.70;;;22.90;99.90;;;;;;5033656;28;20122;-54
2023/05/23 09:38:43;;;;;;;3.92;2.40;;;22.90;99.90;;;;;;5036993;28;20033;-54
2023/05/23 09:41:12;;;;;;;3.95;2.30;;;22.90;99.90;;;;;;5033422;28;20036;-54
2023/05/23 09:43:39;;;;;;;3.45;1.85;;;22.80;99.90;;;;;;5032320;28;20147;-54
2023/05/23 09:46:11;;;;;;;4.78;2.88;;;22.80;99.90;;;;;;5038643;28;20039;-54
2023/05/23 09:48:37;;;;;;;2.58;1.95;;;22.80;99.90;;;;;;5043347;28;20068;-54
2023/05/23 09:51:09;;;;;;;2.63;1.83;;;22.80;99.90;;;;;;5032662;28;20607;-53
2023/05/23 09:53:36;;;;;;;4.20;2.25;;;22.80;99.90;;;;;;5033347;28;20373;-53
2023/05/23 09:56:02;;;;;;;3.92;1.90;;;22.80;99.90;;;;;;5032921;28;20029;-53
2023/05/23 09:58:29;;;;;;;3.47;2.30;;;22.80;99.90;;;;;;5035151;28;20017;-53
2023/05/23 10:00:56;;;;;;;4.72;2.50;;;22.80;99.90;;;;;;5030810;28;20033;-53
2023/05/23 10:03:45;;;;;;;3.72;2.70;;;22.80;99.90;;;;;;5033245;28;20497;-53
2023/05/23 10:06:35;;;;;;;4.25;1.90;;;22.80;99.90;;;;;;5016469;28;20544;-52
2023/05/23 10:09:04;;;;;;;4.72;2.42;;;22.80;99.90;;;;;;5032934;28;20045;-53
2023/05/23 10:11:35;;;;;;;3.63;1.70;;;22.80;99.90;;;;;;5034008;28;20056;-52
2023/05/23 10:14:09;;;;;;;6.05;2.17;;;22.80;99.90;;;;;;5033665;28;20096;-53
2023/05/23 10:16:53;;;;;;;8.65;2.28;;;22.70;99.90;;;;;;5033406;28;20103;-52
2023/05/23 10:19:33;;;;;;;3.72;1.67;;;22.70;99.90;;;;;;5033411;28;20049;-53
2023/05/23 10:22:02;;;;;;;3.08;2.00;;;22.80;99.90;;;;;;5033728;28;20389;-53
2023/05/23 10:24:28;;;;;;;3.30;2.35;;;22.80;99.90;;;;;;5033066;28;20433;-53
2023/05/23 10:26:55;;;;;;;5.35;2.15;;;22.70;99.90;;;;;;5033399;28;20075;-52
2023/05/23 10:29:24;;;;;;;3.70;1.85;;;22.80;99.90;;;;;;5033558;28;20136;-52
2023/05/23 10:31:51;;;;;;;6.78;1.90;;;22.80;99.90;;;;;;5033359;28;20026;-53
2023/05/23 10:34:47;;;;;;;6.95;1.92;;;22.80;99.90;;;;;;5030308;28;20021;-53
2023/05/23 10:37:31;;;;;;;3.10;1.73;;;22.80;99.90;;;;;;5031844;28;20426;-53
2023/05/23 10:40:23;;;;;;;4.18;2.40;;;22.80;99.90;;;;;;5049970;28;20499;-55
2023/05/23 10:43:01;;;;;;;4.25;2.38;;;22.80;99.90;;;;;;5034581;28;20041;-53
2023/05/23 10:45:27;;;;;;;4.68;2.53;;;22.80;99.90;;;;;;5033184;28;20092;-53
2023/05/23 10:47:53;;;;;;;3.85;2.20;;;22.80;99.90;;;;;;5032737;28;20033;-54
2023/05/23 10:51:00;;;;;;;2.55;1.75;;;22.80;99.90;;;;;;5014873;28;20109;-53
2023/05/23 10:53:28;;;;;;;3.33;2.40;;;22.80;99.90;;;;;;5039461;28;20096;-53
2023/05/23 10:55:55;;;;;;;3.45;2.38;;;22.80;99.90;;;;;;5025240;28;20048;-52
2023/05/23 10:58:21;;;;;;;2.58;2.00;;;22.80;99.90;;;;;;5046531;28;20029;-52
2023/05/23 11:01:12;;;;;;;3.47;2.03;;;22.90;99.90;;;;;;5048796;28;20473;-53
2023/05/23 11:03:47;;;;;;;3.67;2.15;;;22.80;99.90;;;;;;5035491;28;20032;-52
2023/05/23 11:06:32;;;;;;;5.57;2.20;;;22.90;99.90;;;;;;5038662;28;20104;-52
2023/05/23 11:09:09;;;;;;;3.38;2.55;;;22.80;99.90;;;;;;5032377;28;20083;-52
2023/05/23 11:11:53;;;;;;;4.37;2.20;;;22.90;99.90;;;;;;5030118;28;20030;-52
2023/05/23 11:14:32;;;;;;;3.03;2.28;;;22.90;99.90;;;;;;5032322;28;20068;-53
2023/05/23 11:16:59;;;;;;;4.68;2.08;;;22.80;99.90;;;;;;5032122;28;20025;-53
2023/05/23 11:19:27;;;;;;;3.07;1.80;;;22.90;99.90;;;;;;5032274;28;20392;-56
2023/05/23 11:21:56;;;;;;;3.30;2.13;;;22.90;99.90;;;;;;5032262;28;20349;-53
2023/05/23 11:24:22;;;;;;;6.90;2.20;;;22.90;99.90;;;;;;5041053;28;20033;-53
2023/05/23 11:27:02;;;;;;;4.28;2.60;;;22.90;99.90;;;;;;5023546;28;20585;-53
2023/05/23 11:29:29;;;;;;;6.35;3.42;;;22.90;99.90;;;;;;5017506;28;20554;-53
2023/05/23 11:31:56;;;;;;;5.32;3.63;;;22.90;99.90;;;;;;5038128;28;20414;-54
2023/05/23 11:34:24;;;;;;;9.68;3.90;;;22.90;99.90;;;;;;5032119;28;20083;-54
2023/05/23 11:36:56;;;;;;;6.15;3.30;;;23.00;99.90;;;;;;5032365;28;20386;-54
2023/05/23 11:39:22;;;;;;;5.57;3.75;;;22.90;99.90;;;;;;5031946;28;20036;-55
2023/05/23 11:42:01;;;;;;;5.38;4.22;;;23.00;99.90;;;;;;5032052;28;20018;-52
2023/05/23 11:44:27;;;;;;;4.88;3.65;;;23.00;99.90;;;;;;5032100;28;20037;-54
2023/05/23 11:47:07;;;;;;;8.65;3.83;;;23.00;99.90;;;;;;5031936;28;20017;-54
2023/05/23 11:49:37;;;;;;;6.45;3.10;;;23.00;99.90;;;;;;5015047;28;20029;-54
2023/05/23 11:52:05;;;;;;;6.18;3.47;;;23.00;99.90;;;;;;5031964;28;20025;-52
2023/05/23 11:54:31;;;;;;;;;;;23.00;99.90;;;;;;5014564;28;21069;-52
2023/05/23 11:56:56;;;;;;;4.97;2.65;;;23.10;99.90;;;;;;5034210;28;20272;-52
2023/05/23 11:59:27;;;;;;;3.95;2.67;;;23.10;99.90;;;;;;5031678;28;20083;-53
2023/05/23 12:01:53;;;;;;;5.85;2.67;;;23.10;99.90;;;;;;5036347;28;20465;-54
2023/05/23 12:04:19;;;;;;;5.50;3.42;;;23.10;99.90;;;;;;5031647;28;20029;-52
2023/05/23 12:06:49;;;;;;;3.95;2.15;;;23.10;99.90;;;;;;5031489;28;20022;-53
2023/05/23 12:09:15;;;;;;;4.55;2.90;;;23.10;99.90;;;;;;5036408;28;20020;-52
2023/05/23 12:11:42;;;;;;;6.43;2.70;;;23.10;99.90;;;;;;5032074;28;20017;-54
2023/05/23 12:14:12;;;;;;;7.05;3.03;;;23.10;99.90;;;;;;5031303;28;20021;-53
2023/05/23 12:16:38;;;;;;;6.00;2.83;;;23.10;99.90;;;;;;5029889;28;20056;-53
2023/05/23 12:19:05;;;;;;;3.97;3.13;;;23.10;99.90;;;;;;5031744;28;20533;-49
2023/05/23 12:21:41;;;;;;;6.72;3.50;;;23.10;99.90;;;;;;5015446;28;20033;-52
2023/05/23 12:24:20;;;;;;;5.22;3.33;;;23.20;99.90;;;;;;5035873;28;20099;-53
2023/05/23 12:26:58;;;;;;;6.05;3.38;;;23.20;99.90;;;;;;5035579;28;20035;-55
2023/05/23 12:29:31;;;;;;;6.10;2.92;;;23.20;99.90;;;;;;5033393;28;20639;-52
2023/05/23 12:31:58;;;;;;;6.00;3.55;;;23.10;99.90;;;;;;5032484;28;20164;-54
2023/05/23 12:34:24;;;;;;;8.68;4.47;;;23.20;99.90;;;;;;5036050;28;20027;-53
2023/05/23 12:36:54;;;;;;;12.27;4.40;;;23.20;99.90;;;;;;5035493;28;20044;-51
2023/05/23 12:39:31;;;;;;;9.05;3.58;;;23.10;99.90;;;;;;5037631;28;20017;-52
2023/05/23 12:42:08;;;;;;;8.48;4.15;;;23.20;99.90;;;;;;5040051;28;20017;-53
2023/05/23 12:44:34;;;;;;;5.60;3.70;;;23.20;99.90;;;;;;5035081;28;20474;-51
2023/05/23 12:47:01;;;;;;;7.13;4.60;;;23.20;99.90;;;;;;5037079;28;20124;-54
2023/05/23 12:49:27;;;;;;;6.38;3.30;;;23.20;99.90;;;;;;5035071;28;20018;-53
2023/05/23 12:51:53;;;;;;;8.82;3.28;;;23.20;99.90;;;;;;5036514;28;20041;-55